createdAt,value
2023-05-11T00:01:44.885Z,99.90
2023-05-11T00:04:11.791Z,99.90
2023-05-11T00:06:38.530Z,99.90
2023-05-11T00:09:05.337Z,99.90
2023-05-11T00:11:32.162Z,99.90
2023-05-11T00:13:58.837Z,99.90
2023-05-11T00:16:25.704Z,99.90
2023-05-11T00:18:52.889Z,99.90
2023-05-11T00:21:19.813Z,99.90
2023-05-11T00:23:46.602Z,99.90
2023-05-11T00:26:13.365Z,99.90
2023-05-11T00:28:40.075Z,99.90
2023-05-11T00:31:06.759Z,99.90
2023-05-11T00:33:33.474Z,99.90
2023-05-11T00:36:00.177Z,99.90
2023-05-11T00:38:27.397Z,99.90
2023-05-11T00:40:54.089Z,99.90
2023-05-11T00:43:21.080Z,99.90
2023-05-11T00:45:49.725Z,99.90
2023-05-11T00:48:16.896Z,99.90
2023-05-11T00:50:43.919Z,99.90
2023-05-11T00:53:11.465Z,99.90
2023-05-11T00:55:38.558Z,99.90
2023-05-11T00:58:05.974Z,99.90
2023-05-11T01:00:32.761Z,99.90
2023-05-11T01:03:01.649Z,99.90
2023-05-11T01:05:38.805Z,99.90
2023-05-11T01:08:09.234Z,99.90
2023-05-11T01:10:42.452Z,99.90
2023-05-11T01:13:41.584Z,99.90
2023-05-11T01:16:27.025Z,99.90
2023-05-11T01:19:04.303Z,99.90
2023-05-11T01:21:33.818Z,99.90
2023-05-11T01:24:26.977Z,99.90
2023-05-11T01:27:12.392Z,99.90
2023-05-11T01:30:02.506Z,99.90
2023-05-11T01:32:33.841Z,99.90
2023-05-11T01:35:14.643Z,99.90
2023-05-11T01:37:45.513Z,99.90
2023-05-11T01:40:18.237Z,99.90
2023-05-11T01:42:49.903Z,99.90
2023-05-11T01:45:17.723Z,99.90
2023-05-11T01:47:48.792Z,99.90
2023-05-11T01:50:18.475Z,99.90
2023-05-11T01:52:47.381Z,99.90
2023-05-11T01:55:16.749Z,99.90
2023-05-11T01:57:44.852Z,99.90
2023-05-11T02:00:12.973Z,99.90
2023-05-11T02:02:41.027Z,99.90
2023-05-11T02:05:09.102Z,99.90
2023-05-11T02:07:38.578Z,99.90
2023-05-11T02:10:06.735Z,99.90
2023-05-11T02:12:35.455Z,99.90
2023-05-11T02:15:03.933Z,99.90
2023-05-11T02:17:31.408Z,99.90
2023-05-11T02:20:00.767Z,99.90
2023-05-11T02:22:29.532Z,99.90
2023-05-11T02:24:56.707Z,99.90
2023-05-11T02:27:23.343Z,99.90
2023-05-11T02:29:50.543Z,99.90
2023-05-11T02:32:20.070Z,99.90
2023-05-11T02:34:56.078Z,99.90
2023-05-11T02:37:25.648Z,99.90
2023-05-11T02:39:59.840Z,99.90
2023-05-11T02:42:28.840Z,99.90
2023-05-11T02:44:59.960Z,99.90
2023-05-11T02:47:32.520Z,99.90
2023-05-11T02:50:04.176Z,99.90
2023-05-11T02:52:32.771Z,99.90
2023-05-11T02:55:02.414Z,99.90
2023-05-11T02:57:29.415Z,99.90
2023-05-11T02:59:56.219Z,99.90
2023-05-11T03:02:23.356Z,99.90
2023-05-11T03:04:50.193Z,99.90
2023-05-11T03:07:16.943Z,99.90
2023-05-11T03:09:44.024Z,99.90
2023-05-11T03:12:11.380Z,99.90
2023-05-11T03:14:38.867Z,99.90
2023-05-11T03:17:06.949Z,99.90
2023-05-11T03:19:33.998Z,99.90
2023-05-11T03:22:00.992Z,99.90
2023-05-11T03:24:28.329Z,99.90
2023-05-11T03:26:56.657Z,99.90
2023-05-11T03:29:25.603Z,99.90
2023-05-11T03:31:52.794Z,99.90
2023-05-11T03:34:19.577Z,99.90
2023-05-11T03:36:49.151Z,99.90
2023-05-11T03:39:17.241Z,99.90
2023-05-11T03:41:49.440Z,99.90
2023-05-11T03:44:20.769Z,99.90
2023-05-11T03:46:50.464Z,99.90
2023-05-11T03:49:18.615Z,99.90
2023-05-11T03:51:46.288Z,99.90
2023-05-11T03:54:13.568Z,99.90
2023-05-11T03:56:40.755Z,99.90
2023-05-11T03:59:09.671Z,99.90
2023-05-11T04:01:36.866Z,99.90
2023-05-11T04:04:03.737Z,99.90
2023-05-11T04:06:31.443Z,99.90
2023-05-11T04:08:58.117Z,99.90
2023-05-11T04:11:24.793Z,99.90
2023-05-11T04:13:51.777Z,99.90
2023-05-11T04:16:18.598Z,99.90
2023-05-11T04:18:45.374Z,99.90
2023-05-11T04:21:12.159Z,99.90
2023-05-11T04:23:39.178Z,99.90
2023-05-11T04:26:05.917Z,99.90
2023-05-11T04:28:32.611Z,99.90
2023-05-11T04:30:59.229Z,99.90
2023-05-11T04:33:25.978Z,99.90
2023-05-11T04:35:54.556Z,99.90
2023-05-11T04:38:22.693Z,99.90
2023-05-11T04:40:50.737Z,99.90
2023-05-11T04:43:18.749Z,99.90
2023-05-11T04:45:49.844Z,99.90
2023-05-11T04:48:19.514Z,99.90
2023-05-11T04:50:47.391Z,99.90
2023-05-11T04:53:14.193Z,99.90
2023-05-11T04:55:41.026Z,99.90
2023-05-11T04:58:07.774Z,99.90
2023-05-11T05:00:36.432Z,99.90
2023-05-11T05:03:03.467Z,99.90
2023-05-11T05:05:30.495Z,99.90
2023-05-11T05:07:57.458Z,99.90
2023-05-11T05:10:24.359Z,99.90
2023-05-11T05:12:51.290Z,99.90
2023-05-11T05:15:18.072Z,99.90
2023-05-11T05:17:44.805Z,99.90
2023-05-11T05:20:11.876Z,99.90
2023-05-11T05:22:38.580Z,99.90
2023-05-11T05:25:05.858Z,99.90
2023-05-11T05:27:34.974Z,99.90
2023-05-11T05:30:01.969Z,99.90
2023-05-11T05:32:28.978Z,99.90
2023-05-11T05:34:56.232Z,99.90
2023-05-11T05:37:22.930Z,99.90
2023-05-11T05:39:49.671Z,99.90
2023-05-11T05:42:16.628Z,99.90
2023-05-11T05:44:43.356Z,99.90
2023-05-11T05:47:09.996Z,99.90
2023-05-11T05:49:36.924Z,99.90
2023-05-11T05:52:03.767Z,99.90
2023-05-11T05:54:31.204Z,99.90
2023-05-11T05:56:57.900Z,99.90
2023-05-11T05:59:24.583Z,99.90
2023-05-11T06:01:51.623Z,99.90
2023-05-11T06:04:18.846Z,99.90
2023-05-11T06:06:46.459Z,99.90
2023-05-11T06:09:13.675Z,99.90
2023-05-11T06:11:41.092Z,99.90
2023-05-11T06:14:07.973Z,99.90
2023-05-11T06:16:34.961Z,99.90
2023-05-11T06:19:01.943Z,99.90
2023-05-11T06:21:28.716Z,99.90
2023-05-11T06:23:55.451Z,99.90
2023-05-11T06:26:25.428Z,99.90
2023-05-11T06:28:52.640Z,99.90
2023-05-11T06:31:19.569Z,99.90
2023-05-11T06:33:46.441Z,99.90
2023-05-11T06:36:13.211Z,99.90
2023-05-11T06:38:39.961Z,99.90
2023-05-11T06:41:07.491Z,99.90
2023-05-11T06:43:34.191Z,99.90
2023-05-11T06:46:00.937Z,99.90
2023-05-11T06:48:29.943Z,99.90
2023-05-11T06:50:57.199Z,99.90
2023-05-11T06:53:23.869Z,99.90
2023-05-11T06:55:50.919Z,99.90
2023-05-11T06:58:20.437Z,99.90
2023-05-11T07:00:47.463Z,99.90
2023-05-11T07:03:14.524Z,99.90
2023-05-11T07:05:41.252Z,99.90
2023-05-11T07:08:07.954Z,99.90
2023-05-11T07:10:34.860Z,99.90
2023-05-11T07:13:01.599Z,99.90
2023-05-11T07:15:28.480Z,99.90
2023-05-11T07:17:55.464Z,99.90
2023-05-11T07:20:22.174Z,99.90
2023-05-11T07:22:48.945Z,99.90
2023-05-11T07:25:15.862Z,99.90
2023-05-11T07:27:42.875Z,99.90
2023-05-11T07:30:09.941Z,99.90
2023-05-11T07:32:36.927Z,99.90
2023-05-11T07:35:03.758Z,99.90
2023-05-11T07:37:30.527Z,99.90
2023-05-11T07:39:57.298Z,99.90
2023-05-11T07:42:24.114Z,99.90
2023-05-11T07:44:50.790Z,99.90
2023-05-11T07:47:20.683Z,99.90
2023-05-11T07:49:47.972Z,99.90
2023-05-11T07:52:14.987Z,99.90
2023-05-11T07:54:41.904Z,99.90
2023-05-11T07:57:08.961Z,99.90
2023-05-11T07:59:36.012Z,99.90
2023-05-11T08:02:04.280Z,99.90
2023-05-11T08:04:31.085Z,99.90
2023-05-11T08:06:58.292Z,99.90
2023-05-11T08:09:25.104Z,99.90
2023-05-11T08:11:53.133Z,99.90
2023-05-11T08:14:21.375Z,99.90
2023-05-11T08:16:49.679Z,99.90
2023-05-11T08:19:16.493Z,99.90
2023-05-11T08:21:44.329Z,99.90
2023-05-11T08:24:11.108Z,99.90
2023-05-11T08:26:38.101Z,99.90
2023-05-11T08:29:04.924Z,99.90
2023-05-11T08:31:32.038Z,99.90
2023-05-11T08:33:59.024Z,99.90
2023-05-11T08:36:25.958Z,99.90
2023-05-11T08:38:57.043Z,99.90
2023-05-11T08:41:25.944Z,99.90
2023-05-11T08:43:54.145Z,99.90
2023-05-11T08:46:23.728Z,99.90
2023-05-11T08:48:50.677Z,99.90
2023-05-11T08:51:17.472Z,99.90
2023-05-11T08:53:44.649Z,99.90
2023-05-11T08:56:12.988Z,99.90
2023-05-11T08:58:40.899Z,99.90
2023-05-11T09:01:12.883Z,99.90
2023-05-11T09:03:42.171Z,99.90
2023-05-11T09:06:09.629Z,99.90
2023-05-11T09:08:37.920Z,99.90
2023-05-11T09:11:06.176Z,99.90
2023-05-11T09:13:33.410Z,99.90
2023-05-11T09:16:00.286Z,99.90
2023-05-11T09:18:27.601Z,99.90
2023-05-11T09:20:54.421Z,99.90
2023-05-11T09:23:27.652Z,99.90
2023-05-11T09:25:54.765Z,99.90
2023-05-11T09:28:26.047Z,99.90
2023-05-11T09:30:53.642Z,99.90
2023-05-11T09:33:24.860Z,99.90
2023-05-11T09:35:52.936Z,99.90
2023-05-11T09:38:20.742Z,99.90
2023-05-11T09:40:52.988Z,99.90
2023-05-11T09:43:26.806Z,99.90
2023-05-11T09:45:55.612Z,99.90
2023-05-11T09:48:22.366Z,99.90
2023-05-11T09:50:50.719Z,99.90
2023-05-11T09:53:18.027Z,99.90
2023-05-11T09:55:55.666Z,99.90
2023-05-11T09:58:22.555Z,99.90
2023-05-11T10:00:56.138Z,99.90
2023-05-11T10:03:25.874Z,99.90
2023-05-11T10:06:00.546Z,99.90
2023-05-11T10:08:34.257Z,99.90
2023-05-11T10:11:03.073Z,99.90
2023-05-11T10:13:32.164Z,99.90
2023-05-11T10:16:02.341Z,99.90
2023-05-11T10:18:29.270Z,99.90
2023-05-11T10:20:57.818Z,99.90
2023-05-11T10:23:26.015Z,99.90
2023-05-11T10:25:54.209Z,99.90
2023-05-11T10:28:22.146Z,99.90
2023-05-11T10:30:49.616Z,99.90
2023-05-11T10:33:17.159Z,99.90
2023-05-11T10:35:45.615Z,99.90
2023-05-11T10:38:14.972Z,99.90
2023-05-11T10:40:43.764Z,99.90
2023-05-11T10:43:33.983Z,99.90
2023-05-11T10:46:44.496Z,99.90
2023-05-11T10:49:29.207Z,99.90
2023-05-11T10:52:01.758Z,99.90
2023-05-11T10:54:52.630Z,99.90
2023-05-11T10:57:22.772Z,99.90
2023-05-11T10:59:49.422Z,99.90
2023-05-11T11:02:18.749Z,99.90
2023-05-11T11:04:47.265Z,99.90
2023-05-11T11:07:18.109Z,99.90
2023-05-11T11:10:05.229Z,99.90
2023-05-11T11:12:34.948Z,99.90
2023-05-11T11:15:06.572Z,99.90
2023-05-11T11:17:35.370Z,99.90
2023-05-11T11:20:10.107Z,99.90
2023-05-11T11:22:41.151Z,99.90
2023-05-11T11:25:12.437Z,99.90
2023-05-11T11:27:44.889Z,99.90
2023-05-11T11:30:22.079Z,99.90
2023-05-11T11:32:51.116Z,99.90
2023-05-11T11:35:41.626Z,99.90
2023-05-11T11:38:12.529Z,99.90
2023-05-11T11:43:21.040Z,99.90
2023-05-11T11:46:01.731Z,99.90
2023-05-11T11:48:38.431Z,99.90
2023-05-11T11:51:10.637Z,99.90
2023-05-11T11:53:44.617Z,99.90
2023-05-11T11:56:14.152Z,99.90
2023-05-11T11:58:44.446Z,99.90
2023-05-11T12:01:21.576Z,99.90
2023-05-11T12:04:05.762Z,99.90
2023-05-11T12:06:40.293Z,99.90
2023-05-11T12:09:08.040Z,99.90
2023-05-11T12:11:35.085Z,99.90
2023-05-11T12:14:02.745Z,99.90
2023-05-11T12:16:29.867Z,98.80
2023-05-11T12:19:01.577Z,99.00
2023-05-11T12:21:33.787Z,98.20
2023-05-11T12:24:05.012Z,98.70
2023-05-11T12:26:33.362Z,99.90
2023-05-11T12:29:09.182Z,99.70
2023-05-11T12:31:40.457Z,99.90
2023-05-11T12:34:13.702Z,99.90
2023-05-11T12:36:40.738Z,99.60
2023-05-11T12:39:07.696Z,99.30
2023-05-11T12:41:34.827Z,98.10
2023-05-11T12:44:01.930Z,99.30
2023-05-11T12:46:28.768Z,97.10
2023-05-11T12:48:56.873Z,98.20
2023-05-11T12:51:47.023Z,99.10
2023-05-11T12:54:31.990Z,99.40
2023-05-11T12:57:00.257Z,99.00
2023-05-11T12:59:35.751Z,98.70
2023-05-11T13:02:12.243Z,99.70
2023-05-11T13:04:40.911Z,99.30
2023-05-11T13:07:08.083Z,99.90
2023-05-11T13:09:35.033Z,99.40
2023-05-11T13:12:17.450Z,95.50
2023-05-11T13:14:49.809Z,96.50
2023-05-11T13:17:37.471Z,96.40
2023-05-11T13:20:19.569Z,98.60
2023-05-11T13:22:47.665Z,98.50
2023-05-11T13:25:20.199Z,99.90
2023-05-11T13:27:47.213Z,99.90
2023-05-11T13:30:14.231Z,99.90
2023-05-11T13:32:41.117Z,99.90
2023-05-11T13:35:08.259Z,99.90
2023-05-11T13:37:35.038Z,99.90
2023-05-11T13:40:02.119Z,99.90
2023-05-11T13:42:29.275Z,99.90
2023-05-11T13:44:56.474Z,99.90
2023-05-11T13:47:23.985Z,99.90
2023-05-11T13:49:50.774Z,99.90
2023-05-11T13:52:17.570Z,99.90
2023-05-11T13:54:44.505Z,99.90
2023-05-11T13:57:11.497Z,99.90
2023-05-11T13:59:38.512Z,99.90
2023-05-11T14:02:05.646Z,99.90
2023-05-11T14:04:32.449Z,99.90
2023-05-11T14:06:59.650Z,99.90
2023-05-11T14:09:26.372Z,99.90
2023-05-11T14:11:53.040Z,99.90
2023-05-11T14:14:19.875Z,99.90
2023-05-11T14:16:46.546Z,99.90
2023-05-11T14:19:13.500Z,99.90
2023-05-11T14:21:40.447Z,99.90
2023-05-11T14:24:11.982Z,99.90
2023-05-11T14:26:40.205Z,99.90
2023-05-11T14:29:07.419Z,99.90
2023-05-11T14:31:35.401Z,99.90
2023-05-11T14:34:03.717Z,99.90
2023-05-11T14:36:31.754Z,99.90
2023-05-11T14:38:58.635Z,99.90
2023-05-11T14:41:25.622Z,99.90
2023-05-11T14:43:52.705Z,99.90
2023-05-11T14:46:19.677Z,99.90
2023-05-11T14:48:46.723Z,99.90
2023-05-11T14:51:13.508Z,99.90
2023-05-11T14:53:40.348Z,99.90
2023-05-11T14:56:07.349Z,99.90
2023-05-11T14:58:34.328Z,99.90
2023-05-11T15:01:00.991Z,99.90
2023-05-11T15:03:28.052Z,99.90
2023-05-11T15:05:54.928Z,99.90
2023-05-11T15:08:29.544Z,99.90
2023-05-11T15:10:57.338Z,99.90
2023-05-11T15:13:24.621Z,99.90
2023-05-11T15:15:51.615Z,99.90
2023-05-11T15:18:18.958Z,99.90
2023-05-11T15:20:46.274Z,99.90
2023-05-11T15:23:16.926Z,99.90
2023-05-11T15:25:44.771Z,99.90
2023-05-11T15:28:11.929Z,99.90
2023-05-11T15:30:38.778Z,99.90
2023-05-11T15:33:05.657Z,99.90
2023-05-11T15:35:34.785Z,99.90
2023-05-11T15:38:01.676Z,99.90
2023-05-11T15:40:29.324Z,99.90
2023-05-11T15:42:58.457Z,99.90
2023-05-11T15:45:26.284Z,99.90
2023-05-11T15:47:54.295Z,99.90
2023-05-11T15:50:21.495Z,99.90
2023-05-11T15:52:48.355Z,99.90
2023-05-11T15:55:15.057Z,99.90
2023-05-11T15:57:41.831Z,99.90
2023-05-11T16:00:12.672Z,99.90
2023-05-11T16:02:39.929Z,99.90
2023-05-11T16:05:06.988Z,99.90
2023-05-11T16:07:34.055Z,99.90
2023-05-11T16:10:01.934Z,99.90
2023-05-11T16:12:28.577Z,99.90
2023-05-11T16:14:55.412Z,99.90
2023-05-11T16:17:22.260Z,99.90
2023-05-11T16:19:48.990Z,99.90
2023-05-11T16:22:15.778Z,99.90
2023-05-11T16:24:42.506Z,99.90
2023-05-11T16:27:09.290Z,99.90
2023-05-11T16:29:36.461Z,99.90
2023-05-11T16:32:03.396Z,99.90
2023-05-11T16:34:30.263Z,99.90
2023-05-11T16:36:58.895Z,99.90
2023-05-11T16:39:26.726Z,99.90
2023-05-11T16:41:53.448Z,99.90
2023-05-11T16:44:20.108Z,99.90
2023-05-11T16:46:47.906Z,99.90
2023-05-11T16:49:14.686Z,99.90
2023-05-11T16:51:41.536Z,99.90
2023-05-11T16:54:08.508Z,99.90
2023-05-11T16:56:35.216Z,99.90
2023-05-11T16:59:02.212Z,99.90
2023-05-11T17:01:29.151Z,99.90
2023-05-11T17:03:56.066Z,99.90
2023-05-11T17:06:23.996Z,99.90
2023-05-11T17:08:51.346Z,99.90
2023-05-11T17:11:18.074Z,99.90
2023-05-11T17:13:45.061Z,99.90
2023-05-11T17:16:11.977Z,99.90
2023-05-11T17:18:38.842Z,99.90
2023-05-11T17:21:05.853Z,99.90
2023-05-11T17:23:33.900Z,99.90
2023-05-11T17:26:07.699Z,99.90
2023-05-11T17:28:34.643Z,99.90
2023-05-11T17:31:11.918Z,99.90
2023-05-11T17:33:39.618Z,99.90
2023-05-11T17:36:06.835Z,99.90
2023-05-11T17:38:33.753Z,99.90
2023-05-11T17:41:04.785Z,99.90
2023-05-11T17:43:35.927Z,99.90
2023-05-11T17:46:04.142Z,99.90
2023-05-11T17:48:32.290Z,99.90
2023-05-11T17:50:59.273Z,99.90
2023-05-11T17:53:26.735Z,99.90
2023-05-11T17:55:53.550Z,99.90
2023-05-11T17:58:20.365Z,99.90
2023-05-11T18:00:49.174Z,99.90
2023-05-11T18:03:17.032Z,99.90
2023-05-11T18:05:48.606Z,99.90
2023-05-11T18:08:16.183Z,99.90
2023-05-11T18:10:43.308Z,99.90
2023-05-11T18:13:10.112Z,99.90
2023-05-11T18:15:37.813Z,99.90
2023-05-11T18:18:04.784Z,99.90
2023-05-11T18:20:31.476Z,99.90
2023-05-11T18:22:58.264Z,99.90
2023-05-11T18:25:25.124Z,99.90
2023-05-11T18:27:52.065Z,99.90
2023-05-11T18:30:19.029Z,99.90
2023-05-11T18:32:46.076Z,99.90
2023-05-11T18:35:12.860Z,99.90
2023-05-11T18:37:39.560Z,99.90
2023-05-11T18:40:07.863Z,99.90
2023-05-11T18:42:34.612Z,99.90
2023-05-11T18:45:01.485Z,99.90
2023-05-11T18:47:28.301Z,99.90
2023-05-11T18:49:55.007Z,99.90
2023-05-11T18:52:21.692Z,99.90
2023-05-11T18:54:48.607Z,99.90
2023-05-11T18:57:18.791Z,99.90
2023-05-11T18:59:45.521Z,99.90
2023-05-11T19:02:12.524Z,99.90
2023-05-11T19:04:39.373Z,99.90
2023-05-11T19:07:06.409Z,99.90
2023-05-11T19:09:34.458Z,99.90
2023-05-11T19:12:01.214Z,99.90
2023-05-11T19:14:28.062Z,99.90
2023-05-11T19:16:55.113Z,99.90
2023-05-11T19:19:22.056Z,99.90
2023-05-11T19:21:48.962Z,99.90
2023-05-11T19:24:15.964Z,99.90
2023-05-11T19:26:45.515Z,99.90
2023-05-11T19:29:21.929Z,99.90
2023-05-11T19:31:49.586Z,99.90
2023-05-11T19:34:16.686Z,99.90
2023-05-11T19:36:43.523Z,99.90
2023-05-11T19:39:10.265Z,99.90
2023-05-11T19:41:37.044Z,99.90
2023-05-11T19:44:04.090Z,99.90
2023-05-11T19:46:30.961Z,99.90
2023-05-11T19:48:57.769Z,99.90
2023-05-11T19:51:24.881Z,99.90
2023-05-11T19:53:51.849Z,99.90
2023-05-11T19:56:18.520Z,99.90
2023-05-11T19:58:46.190Z,99.90
2023-05-11T20:01:13.097Z,99.90
2023-05-11T20:03:39.971Z,99.90
2023-05-11T20:06:06.902Z,99.90
2023-05-11T20:08:33.685Z,99.90
2023-05-11T20:11:01.217Z,99.90
2023-05-11T20:13:28.029Z,99.90
2023-05-11T20:15:54.907Z,99.90
2023-05-11T20:18:21.840Z,99.90
2023-05-11T20:20:48.858Z,99.90
2023-05-11T20:23:15.619Z,99.90
2023-05-11T20:25:44.009Z,99.90
2023-05-11T20:28:13.768Z,99.90
2023-05-11T20:30:40.642Z,99.90
2023-05-11T20:35:40.290Z,99.90
2023-05-11T20:38:07.220Z,99.90
2023-05-11T20:40:34.042Z,99.90
2023-05-11T20:43:00.901Z,99.90
2023-05-11T20:45:27.588Z,99.90
2023-05-11T20:47:54.354Z,99.90
2023-05-11T20:50:21.958Z,99.90
2023-05-11T20:52:48.795Z,99.90
2023-05-11T20:55:16.070Z,99.90
2023-05-11T20:57:42.877Z,99.90
2023-05-11T21:00:11.281Z,99.90
2023-05-11T21:02:38.089Z,99.90
2023-05-11T21:05:05.130Z,99.90
2023-05-11T21:07:31.847Z,99.90
2023-05-11T21:09:58.688Z,99.90
2023-05-11T21:12:25.647Z,99.90
2023-05-11T21:14:52.896Z,99.90
2023-05-11T21:17:21.481Z,99.90
2023-05-11T21:19:48.214Z,99.90
2023-05-11T21:22:14.847Z,99.90
2023-05-11T21:24:42.710Z,99.90
2023-05-11T21:27:09.429Z,99.90
2023-05-11T21:29:36.300Z,99.90
2023-05-11T21:32:03.297Z,99.90
2023-05-11T21:34:30.072Z,99.90
2023-05-11T21:36:56.858Z,99.90
2023-05-11T21:39:25.074Z,99.90
2023-05-11T21:41:52.016Z,99.90
2023-05-11T21:44:19.957Z,99.90
2023-05-11T21:46:46.822Z,99.90
2023-05-11T21:49:13.953Z,99.90
2023-05-11T21:51:40.692Z,99.90
2023-05-11T21:54:07.734Z,99.90
2023-05-11T21:56:34.825Z,99.90
2023-05-11T21:59:01.452Z,99.90
2023-05-11T22:01:28.251Z,99.90
2023-05-11T22:03:55.104Z,99.90
2023-05-11T22:06:22.031Z,99.90
2023-05-11T22:08:48.729Z,99.90
2023-05-11T22:11:15.400Z,99.90
2023-05-11T22:13:42.797Z,99.90
2023-05-11T22:16:09.500Z,99.90
2023-05-11T22:18:36.486Z,99.90
2023-05-11T22:21:03.412Z,99.90
2023-05-11T22:23:31.113Z,99.90
2023-05-11T22:25:57.841Z,99.90
2023-05-11T22:28:24.585Z,99.90
2023-05-11T22:30:51.304Z,99.90
2023-05-11T22:33:18.277Z,99.90
2023-05-11T22:35:45.048Z,99.90
2023-05-11T22:38:11.785Z,99.90
2023-05-11T22:40:38.760Z,99.90
2023-05-11T22:43:05.563Z,99.90
2023-05-11T22:45:32.532Z,99.90
2023-05-11T22:47:59.381Z,99.90
2023-05-11T22:50:26.398Z,99.90
2023-05-11T22:52:53.064Z,99.90
2023-05-11T22:55:20.115Z,99.90
2023-05-11T22:57:46.793Z,99.90
2023-05-11T23:00:13.870Z,99.90
2023-05-11T23:02:41.426Z,99.90
2023-05-11T23:05:08.467Z,99.90
2023-05-11T23:07:35.635Z,99.90
2023-05-11T23:10:02.518Z,99.90
2023-05-11T23:12:29.317Z,99.90
2023-05-11T23:14:56.027Z,99.90
2023-05-11T23:17:22.783Z,99.90
2023-05-11T23:19:49.622Z,99.90
2023-05-11T23:22:16.311Z,99.90
2023-05-11T23:24:43.242Z,99.90
2023-05-11T23:27:09.937Z,99.90
2023-05-11T23:29:37.107Z,99.90
2023-05-11T23:32:04.321Z,99.90
2023-05-11T23:34:31.118Z,99.90
2023-05-11T23:36:57.977Z,99.90
2023-05-11T23:39:24.762Z,99.90
2023-05-11T23:41:51.467Z,99.90
2023-05-11T23:44:18.213Z,99.90
2023-05-11T23:46:45.101Z,99.90
2023-05-11T23:49:11.826Z,99.90
2023-05-11T23:51:38.555Z,99.90
2023-05-11T23:54:05.311Z,99.90
2023-05-11T23:56:31.934Z,99.90
2023-05-11T23:58:58.596Z,99.90
